Time;durP1;ratioP1;P1;durP2;ratioP2;P2;SDS_P1;SDS_P2;PMS_P1;PMS_P2;Temp;Humidity;BMP_temperature;BMP_pressure;BME280_temperature;BME280_humidity;BME280_pressure;Samples;Min_cycle;Max_cycle;Signal;HPM_P1;HPM_P2
2022/05/27 00:00:02;;;;;;;4.55;3.05;;;15.80;99.90;;;;;;5061257;28;20036;-78
2022/05/27 00:02:32;;;;;;;4.65;3.22;;;15.80;99.90;;;;;;5065221;28;20508;-78
2022/05/27 00:05:01;;;;;;;7.30;2.90;;;15.90;99.90;;;;;;5065599;28;20037;-78
2022/05/27 00:07:28;;;;;;;6.43;2.90;;;15.80;99.90;;;;;;5056672;28;20049;-78
2022/05/27 00:09:57;;;;;;;5.38;2.65;;;15.90;99.90;;;;;;5065067;28;20037;-79
2022/05/27 00:12:25;;;;;;;5.75;2.90;;;15.90;99.90;;;;;;5072262;28;20048;-77
2022/05/27 00:14:52;;;;;;;7.47;2.92;;;15.90;99.90;;;;;;5056371;28;20505;-78
2022/05/27 00:17:20;;;;;;;8.38;3.40;;;15.90;99.90;;;;;;5055477;28;20518;-78
2022/05/27 00:19:47;;;;;;;4.30;2.78;;;15.80;99.90;;;;;;5057056;28;20412;-78
2022/05/27 00:22:15;;;;;;;5.47;3.05;;;15.90;99.90;;;;;;5057131;28;20047;-78
2022/05/27 00:24:42;;;;;;;4.30;3.05;;;15.80;99.90;;;;;;5055167;28;20045;-78
2022/05/27 00:27:11;;;;;;;4.43;2.65;;;15.70;99.90;;;;;;5056214;28;20044;-78
2022/05/27 00:29:39;;;;;;;6.32;2.80;;;15.70;99.90;;;;;;5055803;28;20080;-78
2022/05/27 00:32:07;;;;;;;5.82;2.83;;;15.60;99.90;;;;;;5057034;28;20045;-78
2022/05/27 00:34:35;;;;;;;5.35;2.55;;;15.70;99.90;;;;;;5056145;28;20053;-78
2022/05/27 00:37:05;;;;;;;7.32;3.10;;;15.60;99.90;;;;;;5056519;28;20466;-78
2022/05/27 00:39:33;;;;;;;6.00;2.60;;;15.60;99.90;;;;;;5055134;28;20045;-78
2022/05/27 00:42:01;;;;;;;7.15;2.85;;;15.60;99.90;;;;;;5055794;28;20079;-78
2022/05/27 00:44:30;;;;;;;4.03;2.70;;;15.60;99.90;;;;;;5055934;28;20075;-78
2022/05/27 00:47:08;;;;;;;8.57;2.95;;;15.60;99.90;;;;;;5058341;28;20053;-78
2022/05/27 00:49:43;;;;;;;7.55;2.80;;;15.60;99.90;;;;;;5061057;28;20041;-78
2022/05/27 00:52:14;;;;;;;5.13;2.40;;;15.60;99.90;;;;;;5061425;28;20037;-77
2022/05/27 00:54:42;;;;;;;5.22;2.55;;;15.60;99.90;;;;;;5058978;28;20049;-78
2022/05/27 00:57:15;;;;;;;4.90;2.88;;;15.60;99.90;;;;;;5060853;28;20037;-78
2022/05/27 00:59:49;;;;;;;6.03;2.88;;;15.50;99.90;;;;;;5058482;28;20033;-78
2022/05/27 01:02:16;;;;;;;11.25;4.90;;;15.50;99.90;;;;;;5056881;28;20049;-78
2022/05/27 01:04:45;;;;;;;7.45;3.13;;;15.50;99.90;;;;;;5059164;28;20057;-78
2022/05/27 01:07:12;;;;;;;14.38;8.93;;;15.40;99.90;;;;;;5058783;28;20056;-78
2022/05/27 01:09:42;;;;;;;5.82;3.38;;;15.40;99.90;;;;;;5059458;28;20484;-78
2022/05/27 01:12:34;;;;;;;6.35;3.50;;;15.40;99.90;;;;;;5059457;28;20045;-78
2022/05/27 01:15:24;;;;;;;6.93;3.65;;;15.50;99.90;;;;;;5048215;28;20037;-78
2022/05/27 01:18:01;;;;;;;8.40;3.60;;;15.40;99.90;;;;;;5061415;28;20056;-78
2022/05/27 01:20:35;;;;;;;7.68;3.30;;;15.50;99.90;;;;;;5063746;28;20040;-78
2022/05/27 01:23:26;;;;;;;7.35;3.85;;;15.50;99.90;;;;;;5065410;28;20069;-77
2022/05/27 01:26:26;;;;;;;6.05;4.03;;;15.40;99.90;;;;;;5066604;28;20048;-78
2022/05/27 01:29:03;;;;;;;9.05;3.50;;;15.40;99.90;;;;;;5062941;28;20428;-78
2022/05/27 01:31:41;;;;;;;9.45;3.65;;;15.30;99.90;;;;;;5055184;28;20053;-77
2022/05/27 01:34:15;;;;;;;5.95;3.47;;;15.30;99.90;;;;;;5055224;28;20049;-78
2022/05/27 01:36:48;;;;;;;4.05;2.70;;;15.20;99.90;;;;;;5057147;28;20511;-78
2022/05/27 01:39:26;;;;;;;4.85;2.92;;;15.30;99.90;;;;;;5056451;28;20496;-77
2022/05/27 01:42:01;;;;;;;4.72;2.97;;;15.30;99.90;;;;;;5056294;28;20041;-77
2022/05/27 01:44:54;;;;;;;5.57;3.13;;;15.20;99.90;;;;;;5055229;28;20041;-77
2022/05/27 01:47:31;;;;;;;5.35;3.30;;;15.20;99.90;;;;;;5035168;28;20099;-77
2022/05/27 01:50:07;;;;;;;6.00;3.10;;;15.10;99.90;;;;;;5036394;28;20451;-77
2022/05/27 01:52:42;;;;;;;7.07;3.05;;;15.10;99.90;;;;;;5035481;28;20095;-77
2022/05/27 01:55:14;;;;;;;5.95;3.00;;;15.10;99.90;;;;;;5036760;28;20562;-77
2022/05/27 01:57:46;;;;;;;5.47;3.45;;;15.10;99.90;;;;;;5044246;28;20037;-78
2022/05/27 02:00:18;;;;;;;6.80;2.88;;;15.10;99.90;;;;;;5055769;28;20049;-78
2022/05/27 02:03:00;;;;;;;5.72;2.90;;;15.00;99.90;;;;;;5056202;28;20434;-78
2022/05/27 02:05:31;;;;;;;5.97;3.15;;;15.00;99.90;;;;;;5066905;28;20036;-78
2022/05/27 02:08:02;;;;;;;7.30;3.00;;;14.90;99.90;;;;;;5065625;28;20537;-77
2022/05/27 02:10:34;;;;;;;4.70;2.72;;;15.00;99.90;;;;;;5058456;28;20481;-78
2022/05/27 02:13:05;;;;;;;3.60;2.88;;;15.00;99.90;;;;;;5055108;28;20068;-78
2022/05/27 02:15:36;;;;;;;4.65;2.90;;;15.00;99.90;;;;;;5054973;28;20043;-77
2022/05/27 02:18:10;;;;;;;5.75;2.63;;;15.00;99.90;;;;;;5055143;28;20048;-77
2022/05/27 02:20:41;;;;;;;4.68;2.90;;;15.00;99.90;;;;;;5055145;28;20076;-77
2022/05/27 02:23:21;;;;;;;4.00;2.90;;;15.00;99.90;;;;;;5053237;28;20076;-77
2022/05/27 02:25:52;;;;;;;4.70;2.60;;;15.00;99.90;;;;;;5054858;28;20049;-78
2022/05/27 02:28:23;;;;;;;4.15;2.63;;;15.00;99.90;;;;;;5054738;28;20129;-77
2022/05/27 02:30:56;;;;;;;5.40;3.00;;;15.00;99.90;;;;;;5052881;28;20102;-79
2022/05/27 02:36:17;;;;;;;7.13;2.97;;;15.00;99.90;;;;;;5054356;28;20120;-77
2022/05/27 02:38:45;;;;;;;7.40;2.85;;;15.10;99.90;;;;;;5054720;28;20077;-77
2022/05/27 02:41:18;;;;;;;4.75;2.80;;;15.10;99.90;;;;;;5054732;28;20048;-78
2022/05/27 02:44:10;;;;;;;5.55;2.95;;;15.10;99.90;;;;;;5053972;28;20040;-77
2022/05/27 02:46:49;;;;;;;4.82;3.20;;;15.10;99.90;;;;;;5054045;28;20476;-78
2022/05/27 02:49:24;;;;;;;7.00;3.10;;;15.20;99.90;;;;;;5054777;28;20044;-78
2022/05/27 02:52:02;;;;;;;8.88;3.45;;;15.20;99.90;;;;;;5054488;28;20075;-77
2022/05/27 02:54:32;;;;;;;6.40;3.13;;;15.10;99.90;;;;;;5054146;28;20041;-78
2022/05/27 02:57:05;;;;;;;5.07;2.95;;;15.10;99.90;;;;;;5054472;28;20095;-78
2022/05/27 02:59:35;;;;;;;4.75;3.10;;;15.20;99.90;;;;;;5054427;28;20075;-77
2022/05/27 03:02:08;;;;;;;4.97;2.90;;;15.20;99.90;;;;;;5054417;28;20121;-77
2022/05/27 03:04:39;;;;;;;5.97;2.88;;;15.20;99.90;;;;;;5055242;28;20124;-77
2022/05/27 03:07:17;;;;;;;5.07;2.92;;;15.20;99.90;;;;;;5056537;28;20102;-77
2022/05/27 03:09:54;;;;;;;5.68;3.13;;;15.20;99.90;;;;;;5055409;28;20041;-77
2022/05/27 03:12:33;;;;;;;6.75;2.90;;;15.20;99.90;;;;;;5057832;28;20445;-77
2022/05/27 03:15:18;;;;;;;5.40;3.35;;;15.20;99.90;;;;;;5054436;28;20508;-77
2022/05/27 03:17:59;;;;;;;8.80;3.33;;;15.20;99.90;;;;;;5033936;28;20049;-77
2022/05/27 03:20:42;;;;;;;5.43;3.05;;;15.20;99.90;;;;;;5034228;28;20045;-77
2022/05/27 03:23:32;;;;;;;6.35;3.38;;;15.30;99.90;;;;;;5035607;28;20132;-77
2022/05/27 03:26:04;;;;;;;8.93;2.95;;;15.30;99.90;;;;;;5047695;28;20047;-78
2022/05/27 03:28:38;;;;;;;4.38;3.25;;;15.30;99.90;;;;;;5056360;28;20415;-78
2022/05/27 03:31:13;;;;;;;8.00;3.40;;;15.40;99.90;;;;;;5057234;28;20067;-77
2022/05/27 03:33:48;;;;;;;4.22;2.95;;;15.40;99.90;;;;;;5064910;28;20079;-77
2022/05/27 03:36:22;;;;;;;5.83;3.00;;;15.40;99.90;;;;;;5072421;28;20413;-78
2022/05/27 03:38:55;;;;;;;6.07;3.40;;;15.50;99.90;;;;;;5076045;28;20097;-77
2022/05/27 03:41:26;;;;;;;6.03;3.78;;;15.50;99.90;;;;;;5074355;28;20120;-77
2022/05/27 03:43:54;;;;;;;8.20;4.00;;;15.50;99.90;;;;;;5058539;28;20061;-77
2022/05/27 03:46:30;;;;;;;9.73;3.55;;;15.50;99.90;;;;;;5056915;28;20076;-77
2022/05/27 03:48:57;;;;;;;7.43;2.92;;;15.60;99.90;;;;;;5058348;28;20095;-77
2022/05/27 03:51:29;;;;;;;5.90;2.83;;;15.60;99.90;;;;;;5053165;28;20060;-77
2022/05/27 03:54:06;;;;;;;5.25;2.50;;;15.70;99.90;;;;;;5053294;28;20087;-78
2022/05/27 03:56:34;;;;;;;6.28;2.88;;;15.80;99.90;;;;;;5053279;28;20041;-77
2022/05/27 03:59:02;;;;;;;6.07;2.88;;;15.80;99.90;;;;;;5060951;28;20068;-77
2022/05/27 04:01:31;;;;;;;5.65;2.95;;;15.90;99.90;;;;;;5057401;28;20045;-78
2022/05/27 04:04:00;;;;;;;4.20;2.78;;;15.90;99.90;;;;;;5059467;28;20053;-79
2022/05/27 04:06:29;;;;;;;5.10;2.88;;;16.00;99.90;;;;;;5060058;28;20114;-78
2022/05/27 04:08:57;;;;;;;7.47;2.67;;;16.00;99.90;;;;;;5055415;28;20059;-79
2022/05/27 04:11:25;;;;;;;5.68;3.10;;;16.10;99.90;;;;;;5042221;28;20128;-78
2022/05/27 04:13:52;;;;;;;5.50;3.55;;;16.20;99.90;;;;;;5067323;28;20056;-79
2022/05/27 04:16:20;;;;;;;6.90;3.90;;;16.30;99.90;;;;;;5069283;28;20056;-79
2022/05/27 04:18:47;;;;;;;6.70;4.15;;;16.50;99.90;;;;;;5062267;28;20040;-78
2022/05/27 04:21:15;;;;;;;9.57;4.20;;;16.80;99.90;;;;;;5064940;28;20110;-78
2022/05/27 04:23:43;;;;;;;8.48;3.80;;;17.20;99.90;;;;;;5061013;28;20057;-79
2022/05/27 04:26:11;;;;;;;11.88;5.25;;;17.60;99.90;;;;;;5065546;28;20037;-78
2022/05/27 04:28:39;;;;;;;6.05;3.70;;;17.80;99.90;;;;;;5063955;28;20068;-78
2022/05/27 04:31:06;;;;;;;6.68;3.90;;;18.20;99.90;;;;;;5057030;28;20059;-79
2022/05/27 04:33:33;;;;;;;8.32;3.70;;;18.60;99.90;;;;;;5060332;28;20044;-78
2022/05/27 04:36:01;;;;;;;7.32;3.40;;;18.80;99.90;;;;;;5061002;28;20067;-78
2022/05/27 04:38:29;;;;;;;7.07;3.20;;;18.70;99.90;;;;;;5060249;28;20053;-78
2022/05/27 04:40:58;;;;;;;8.50;4.22;;;18.50;99.90;;;;;;5054663;28;20157;-78
2022/05/27 04:43:25;;;;;;;11.27;4.38;;;18.50;99.90;;;;;;5063118;28;20041;-77
2022/05/27 04:45:53;;;;;;;11.00;3.40;;;18.50;99.90;;;;;;5057191;28;20089;-78
2022/05/27 04:48:21;;;;;;;12.57;4.05;;;18.70;99.90;;;;;;5055995;28;20091;-78
2022/05/27 04:50:48;;;;;;;5.13;4.10;;;18.90;99.90;;;;;;5066734;28;20041;-77
2022/05/27 04:53:16;;;;;;;26.70;4.93;;;19.50;99.90;;;;;;5065120;28;20053;-77
2022/05/27 04:55:43;;;;;;;9.38;3.40;;;20.20;99.90;;;;;;5069014;28;20135;-77
2022/05/27 04:58:13;;;;;;;10.43;3.97;;;21.10;99.90;;;;;;5057699;28;20048;-77
2022/05/27 05:00:43;;;;;;;9.80;3.30;;;21.80;99.90;;;;;;5056953;28;20464;-78
2022/05/27 05:03:10;;;;;;;6.28;3.63;;;22.60;99.90;;;;;;5055975;28;20055;-77
2022/05/27 05:05:38;;;;;;;7.15;3.42;;;23.00;99.90;;;;;;5055799;28;20393;-77
2022/05/27 05:08:09;;;;;;;11.35;3.40;;;23.40;99.90;;;;;;5057192;28;20500;-77
2022/05/27 05:10:37;;;;;;;10.35;3.67;;;23.60;99.90;;;;;;5070066;28;20539;-78
2022/05/27 05:13:04;;;;;;;5.82;3.10;;;23.80;99.90;;;;;;5068105;28;20076;-77
2022/05/27 05:15:33;;;;;;;8.90;3.25;;;24.00;99.90;;;;;;5040134;28;20045;-78
2022/05/27 05:18:00;;;;;;;5.03;2.92;;;24.10;99.90;;;;;;5069984;28;20041;-76
2022/05/27 05:20:30;;;;;;;12.00;4.53;;;24.50;99.90;;;;;;5077374;28;20488;-77
2022/05/27 05:22:57;;;;;;;5.47;2.60;;;24.70;99.90;;;;;;5063295;28;20037;-77
2022/05/27 05:25:25;;;;;;;4.93;3.38;;;24.90;99.90;;;;;;5068213;28;20487;-77
2022/05/27 05:27:53;;;;;;;8.65;2.85;;;25.10;99.90;;;;;;5072685;28;20044;-77
2022/05/27 05:30:23;;;;;;;7.30;5.85;;;25.20;99.90;;;;;;5068570;28;20036;-77
2022/05/27 05:32:52;;;;;;;12.43;5.03;;;25.60;99.90;;;;;;5077052;28;20040;-76
2022/05/27 05:35:20;;;;;;;8.48;4.80;;;25.90;99.90;;;;;;5077113;28;20079;-77
2022/05/27 05:37:47;;;;;;;9.93;3.88;;;25.90;99.90;;;;;;5062128;28;20106;-79
2022/05/27 05:40:15;;;;;;;9.05;3.60;;;25.80;99.90;;;;;;5057977;28;20037;-78
2022/05/27 05:42:43;;;;;;;11.15;8.13;;;25.80;99.90;;;;;;5055181;28;20045;-77
2022/05/27 05:45:12;;;;;;;7.00;3.88;;;25.70;99.90;;;;;;5057057;28;20072;-77
2022/05/27 05:47:39;;;;;;;5.20;3.13;;;25.90;99.90;;;;;;5058896;28;20052;-77
2022/05/27 05:50:09;;;;;;;9.25;4.20;;;25.90;99.90;;;;;;5060114;28;20576;-79
2022/05/27 05:52:36;;;;;;;11.95;3.55;;;25.80;99.90;;;;;;5057136;28;20091;-77
2022/05/27 05:55:05;;;;;;;9.15;4.93;;;26.00;99.90;;;;;;5055591;28;20041;-77
2022/05/27 05:57:32;;;;;;;8.93;4.30;;;25.90;99.90;;;;;;5054075;28;20081;-77
2022/05/27 06:00:00;;;;;;;9.52;4.78;;;26.00;99.90;;;;;;5056716;28;20561;-78
2022/05/27 06:02:27;;;;;;;8.75;4.60;;;25.90;99.90;;;;;;5055164;28;20045;-77
2022/05/27 06:04:56;;;;;;;10.10;5.40;;;25.90;99.90;;;;;;5067544;28;20123;-78
2022/05/27 06:07:24;;;;;;;13.63;4.50;;;25.80;99.90;;;;;;5068030;28;20052;-78
2022/05/27 06:09:52;;;;;;;15.65;4.85;;;25.80;99.90;;;;;;5070398;28;20111;-77
2022/05/27 06:12:23;;;;;;;12.23;6.15;;;25.90;99.90;;;;;;5064804;28;20052;-75
2022/05/27 06:14:51;;;;;;;15.68;5.78;;;25.70;99.90;;;;;;5069188;28;20407;-77
2022/05/27 06:17:18;;;;;;;14.32;5.60;;;24.90;99.90;;;;;;5061994;28;20041;-76
2022/05/27 06:19:45;;;;;;;17.77;5.68;;;24.70;99.90;;;;;;5072854;28;20044;-76
2022/05/27 06:22:13;;;;;;;12.30;5.40;;;24.60;99.90;;;;;;5074073;28;20040;-78
2022/05/27 06:24:41;;;;;;;13.52;4.55;;;24.50;99.90;;;;;;5073162;28;20070;-77
2022/05/27 06:27:09;;;;;;;14.77;4.18;;;24.70;99.90;;;;;;5074821;28;20064;-77
2022/05/27 06:35:07;;;;;;;15.73;5.68;;;25.20;99.90;;;;;;5074894;28;20373;-78
2022/05/27 06:37:35;;;;;;;15.13;8.60;;;25.30;99.90;;;;;;5074765;28;20041;-78
2022/05/27 06:40:05;;;;;;;11.98;5.82;;;25.40;99.90;;;;;;5076243;28;20032;-78
2022/05/27 06:42:32;;;;;;;19.55;7.68;;;25.00;99.90;;;;;;5076644;28;20453;-77
2022/05/27 06:45:00;;;;;;;17.35;6.07;;;24.70;99.90;;;;;;5076962;28;20044;-78
2022/05/27 06:47:28;;;;;;;15.13;6.28;;;24.40;99.90;;;;;;5076077;28;20044;-78
2022/05/27 06:49:55;;;;;;;21.35;9.20;;;24.30;99.90;;;;;;5077094;28;20056;-78
2022/05/27 06:52:24;;;;;;;13.43;5.50;;;24.40;99.90;;;;;;5077547;28;20090;-78
2022/05/27 06:54:52;;;;;;;17.02;6.95;;;24.40;99.90;;;;;;5078606;28;20643;-79
2022/05/27 06:57:21;;;;;;;17.35;6.43;;;24.80;99.90;;;;;;5078599;28;20036;-78
2022/05/27 06:59:48;;;;;;;15.65;5.40;;;24.80;99.90;;;;;;5077163;28;20078;-78
2022/05/27 07:02:16;;;;;;;13.85;5.18;;;24.80;99.90;;;;;;5075216;28;20187;-77
2022/05/27 07:04:43;;;;;;;11.45;4.50;;;24.80;99.90;;;;;;5073558;28;20496;-78
2022/05/27 07:07:11;;;;;;;11.60;4.40;;;24.80;99.90;;;;;;5074333;28;20238;-77
2022/05/27 07:09:38;;;;;;;12.93;3.80;;;24.80;99.90;;;;;;5074418;28;20089;-77
2022/05/27 07:12:08;;;;;;;14.88;4.88;;;24.70;99.90;;;;;;5072646;28;20484;-77
2022/05/27 07:14:39;;;;;;;12.48;5.07;;;24.70;99.90;;;;;;5075690;28;20033;-77
2022/05/27 07:17:06;;;;;;;8.65;4.40;;;24.80;99.90;;;;;;5076261;28;20044;-77
2022/05/27 07:19:34;;;;;;;8.63;3.70;;;25.10;99.90;;;;;;5078231;28;20484;-77
2022/05/27 07:22:02;;;;;;;12.13;3.85;;;25.40;99.90;;;;;;5075372;28;20071;-78
2022/05/27 07:24:29;;;;;;;7.32;3.85;;;25.50;99.90;;;;;;5075357;28;20064;-77
2022/05/27 07:26:57;;;;;;;9.95;4.93;;;25.60;99.90;;;;;;5074906;28;20113;-77
2022/05/27 07:29:24;;;;;;;12.55;4.95;;;25.90;99.90;;;;;;5073043;28;20053;-77
2022/05/27 07:31:53;;;;;;;8.50;4.50;;;25.90;99.90;;;;;;5074605;28;20041;-77
2022/05/27 07:34:20;;;;;;;6.80;4.28;;;25.90;97.00;;;;;;5077035;28;20040;-79
2022/05/27 07:36:47;;;;;;;10.10;5.50;;;26.40;96.40;;;;;;5078725;28;20048;-77
2022/05/27 07:39:15;;;;;;;13.65;5.15;;;26.40;99.90;;;;;;5080971;28;20044;-79
2022/05/27 07:41:42;;;;;;;20.55;4.72;;;26.70;99.90;;;;;;5080408;28;20053;-78
2022/05/27 07:44:09;;;;;;;9.75;4.50;;;26.50;99.90;;;;;;5078318;28;20055;-77
2022/05/27 07:46:39;;;;;;;9.18;5.30;;;26.60;99.90;;;;;;5077348;28;20048;-78
2022/05/27 07:49:08;;;;;;;13.95;5.97;;;26.40;99.50;;;;;;5078145;28;20052;-78
2022/05/27 07:51:35;;;;;;;10.18;5.82;;;26.40;99.90;;;;;;5079029;28;20094;-78
2022/05/27 07:54:02;;;;;;;12.48;5.32;;;26.30;96.50;;;;;;5076893;28;20426;-77
2022/05/27 07:56:30;;;;;;;9.25;4.03;;;26.40;99.90;;;;;;5080979;28;20131;-77
2022/05/27 07:58:57;;;;;;;9.07;4.47;;;26.60;99.90;;;;;;5083718;28;20066;-77
2022/05/27 08:01:25;;;;;;;16.13;5.68;;;26.40;99.90;;;;;;5081792;28;20105;-77
2022/05/27 08:03:52;;;;;;;10.02;4.45;;;26.50;99.90;;;;;;5081195;28;20070;-77
2022/05/27 08:06:21;;;;;;;13.90;5.55;;;26.50;99.90;;;;;;5082071;28;20044;-77
2022/05/27 08:08:48;;;;;;;20.33;7.60;;;26.80;99.90;;;;;;5080824;28;20076;-78
2022/05/27 08:11:15;;;;;;;11.38;5.22;;;26.80;99.90;;;;;;5078052;28;20553;-79
2022/05/27 08:13:42;;;;;;;11.75;4.63;;;26.80;99.90;;;;;;5077392;28;20078;-78
2022/05/27 08:16:10;;;;;;;10.57;4.70;;;27.00;99.90;;;;;;5074970;28;20464;-78
2022/05/27 08:18:38;;;;;;;11.32;4.40;;;27.10;99.90;;;;;;5074905;28;20489;-77
2022/05/27 08:21:05;;;;;;;13.90;5.25;;;27.20;99.90;;;;;;5076133;28;20043;-78
2022/05/27 08:23:34;;;;;;;12.35;5.05;;;27.50;99.90;;;;;;5078084;28;20076;-78
2022/05/27 08:26:03;;;;;;;11.15;5.18;;;27.90;99.90;;;;;;5079452;28;20055;-78
2022/05/27 08:28:31;;;;;;;10.02;4.15;;;27.80;99.90;;;;;;5081238;28;20084;-78
2022/05/27 08:30:59;;;;;;;7.30;4.10;;;27.60;99.90;;;;;;5079383;28;20078;-78
2022/05/27 08:38:00;;;;;;;10.05;4.03;;;27.30;99.90;;;;;;5079532;28;20043;-78
2022/05/27 08:39:04;;;;;;;8.80;4.05;;;27.30;99.90;;;;;;5079978;28;20059;-78
2022/05/27 08:41:51;;;;;;;7.30;4.07;;;27.40;99.90;;;;;;5079232;28;20131;-78
2022/05/27 08:44:39;;;;;;;10.55;4.40;;;27.40;99.90;;;;;;5078752;28;20060;-78
2022/05/27 08:47:13;;;;;;;8.43;5.15;;;27.70;99.90;;;;;;5080041;28;20067;-78
2022/05/27 08:49:47;;;;;;;7.90;4.82;;;27.70;99.90;;;;;;5077946;28;20104;-78
2022/05/27 08:52:21;;;;;;;9.70;4.18;;;27.70;99.90;;;;;;5078637;28;20071;-78
2022/05/27 08:54:53;;;;;;;9.07;4.05;;;27.70;99.90;;;;;;5077324;28;20040;-78
2022/05/27 09:00:14;;;;;;;6.97;3.75;;;27.80;99.90;;;;;;5076812;28;20070;-78
2022/05/27 09:02:45;;;;;;;9.85;4.22;;;27.80;99.90;;;;;;5081008;28;20057;-78
2022/05/27 09:05:19;;;;;;;10.45;4.95;;;28.00;99.90;;;;;;5080166;28;20094;-78
2022/05/27 09:07:52;;;;;;;9.70;4.43;;;28.10;99.90;;;;;;5076998;28;20044;-78
2022/05/27 09:10:23;;;;;;;9.80;4.28;;;28.30;99.90;;;;;;5079111;28;20056;-78
2022/05/27 09:13:19;;;;;;;7.15;4.07;;;28.50;99.90;;;;;;5079018;28;20056;-78
2022/05/27 09:15:54;;;;;;;7.72;5.32;;;28.50;99.90;;;;;;5077422;28;20049;-79
2022/05/27 09:18:33;;;;;;;7.85;3.38;;;28.50;99.90;;;;;;5077460;28;20044;-78
2022/05/27 09:21:25;;;;;;;14.65;6.63;;;28.60;99.90;;;;;;5077624;28;20074;-78
2022/05/27 09:24:26;;;;;;;9.80;5.15;;;28.90;99.90;;;;;;5079178;28;20055;-78
2022/05/27 09:27:03;;;;;;;10.23;5.07;;;29.10;99.90;;;;;;5081824;28;20040;-77
2022/05/27 09:29:52;;;;;;;10.18;5.47;;;29.00;99.90;;;;;;5089585;28;20044;-77
2022/05/27 09:32:26;;;;;;;8.20;4.60;;;28.80;99.90;;;;;;5090690;28;20044;-78
2022/05/27 09:34:56;;;;;;;9.63;4.80;;;28.70;99.90;;;;;;5081468;28;20047;-79
2022/05/27 09:37:27;;;;;;;11.05;4.28;;;28.80;99.90;;;;;;5078297;28;20064;-78
2022/05/27 09:39:56;;;;;;;7.55;4.72;;;28.80;99.90;;;;;;5076703;28;20048;-79
2022/05/27 09:42:31;;;;;;;7.55;3.80;;;28.80;99.90;;;;;;5077424;28;20545;-77
2022/05/27 09:44:59;;;;;;;15.35;7.03;;;28.80;99.90;;;;;;5082655;28;20032;-79
2022/05/27 09:47:31;;;;;;;10.18;6.43;;;29.00;99.90;;;;;;5079793;28;20047;-78
2022/05/27 09:50:01;;;;;;;12.88;6.00;;;28.90;99.90;;;;;;5078332;28;20114;-78
2022/05/27 09:52:32;;;;;;;9.90;4.72;;;29.00;99.90;;;;;;5078681;28;20041;-78
2022/05/27 09:55:13;;;;;;;8.38;5.07;;;29.00;99.90;;;;;;5078139;28;20040;-78
2022/05/27 09:57:55;;;;;;;11.10;5.47;;;29.20;99.90;;;;;;5078596;28;20048;-78
2022/05/27 10:00:36;;;;;;;14.10;6.93;;;29.20;99.90;;;;;;5077839;28;20097;-78
2022/05/27 10:03:26;;;;;;;8.88;5.78;;;29.20;99.90;;;;;;5075763;28;20053;-78
2022/05/27 10:05:56;;;;;;;9.43;5.03;;;29.20;99.90;;;;;;5078655;28;20398;-78
2022/05/27 10:08:29;;;;;;;11.90;5.40;;;29.00;99.90;;;;;;5077170;28;20048;-78
2022/05/27 10:11:27;;;;;;;10.77;5.18;;;28.80;99.90;;;;;;5077755;28;20129;-78
2022/05/27 10:14:14;;;;;;;12.45;4.82;;;28.90;99.90;;;;;;5076546;28;20075;-78
2022/05/27 10:16:44;;;;;;;9.32;5.00;;;29.00;99.90;;;;;;5057614;28;20114;-79
2022/05/27 10:19:22;;;;;;;13.05;4.55;;;28.90;99.90;;;;;;5058005;28;20508;-78
2022/05/27 10:21:52;;;;;;;11.68;5.05;;;29.00;99.90;;;;;;5060082;28;20549;-77
2022/05/27 10:24:23;;;;;;;8.85;4.88;;;29.00;99.90;;;;;;5063625;28;20099;-78
2022/05/27 10:27:02;;;;;;;9.90;4.80;;;29.10;99.90;;;;;;5058609;28;20102;-78
2022/05/27 10:29:31;;;;;;;9.90;4.47;;;29.20;99.90;;;;;;5038167;28;20079;-78
2022/05/27 10:32:01;;;;;;;21.13;13.73;;;29.20;99.90;;;;;;5048353;28;20037;-79
2022/05/27 10:34:43;;;;;;;14.48;7.07;;;29.20;99.90;;;;;;5058689;28;20452;-78
2022/05/27 10:37:22;;;;;;;9.68;5.07;;;29.10;99.90;;;;;;5057777;28;20041;-78
2022/05/27 10:40:05;;;;;;;12.63;4.70;;;29.20;99.90;;;;;;5058172;28;20546;-78
2022/05/27 10:42:44;;;;;;;12.10;6.53;;;29.20;99.90;;;;;;5058155;28;20496;-78
2022/05/27 10:45:20;;;;;;;11.40;8.13;;;29.40;99.90;;;;;;5060099;28;20044;-78
2022/05/27 10:48:16;;;;;;;10.50;4.43;;;29.40;99.90;;;;;;5061497;28;20045;-78
2022/05/27 10:50:52;;;;;;;8.82;4.90;;;29.40;99.90;;;;;;5061033;28;20500;-78
2022/05/27 10:53:43;;;;;;;9.02;4.68;;;29.30;99.90;;;;;;5067782;28;20045;-78
2022/05/27 10:56:25;;;;;;;5.85;3.75;;;29.40;99.90;;;;;;5063267;28;20041;-79
2022/05/27 11:02:10;;;;;;;11.75;4.82;;;29.10;99.90;;;;;;5037834;28;20084;-78
2022/05/27 11:05:05;;;;;;;11.57;5.85;;;29.30;99.90;;;;;;5039434;28;20072;-79
2022/05/27 11:07:39;;;;;;;11.38;4.95;;;29.40;99.90;;;;;;5054685;28;20114;-77
2022/05/27 11:10:19;;;;;;;9.60;4.55;;;29.60;99.90;;;;;;5055089;28;20087;-79
2022/05/27 11:15:55;;;;;;;8.48;5.10;;;28.90;99.90;;;;;;5055805;28;20053;-78
2022/05/27 11:18:38;;;;;;;8.43;4.47;;;29.00;99.90;;;;;;5052444;28;20051;-77
2022/05/27 11:21:36;;;;;;;8.50;5.60;;;29.00;99.90;;;;;;5052707;28;20503;-78
2022/05/27 11:24:25;;;;;;;10.05;5.40;;;29.00;99.90;;;;;;5038399;28;20099;-77
2022/05/27 11:27:05;;;;;;;6.20;4.47;;;29.00;99.90;;;;;;5054345;28;20068;-77
2022/05/27 11:29:55;;;;;;;9.48;5.78;;;28.90;99.90;;;;;;5053437;28;20037;-77
2022/05/27 11:32:42;;;;;;;11.98;5.75;;;28.80;99.90;;;;;;5053225;28;20056;-77
2022/05/27 11:35:17;;;;;;;9.05;5.53;;;29.00;99.90;;;;;;5054028;28;20484;-77
2022/05/27 11:38:00;;;;;;;9.68;5.68;;;29.40;99.90;;;;;;5053781;28;20036;-77
2022/05/27 11:40:34;;;;;;;8.63;4.80;;;29.50;99.90;;;;;;5052827;28;20064;-78
2022/05/27 11:43:28;;;;;;;7.32;4.25;;;29.50;99.90;;;;;;5053253;28;20515;-77
2022/05/27 11:46:10;;;;;;;11.73;4.57;;;29.40;99.90;;;;;;5054474;28;20481;-77
2022/05/27 11:48:47;;;;;;;11.65;7.50;;;29.30;99.90;;;;;;5054261;28;20053;-78
2022/05/27 11:51:32;;;;;;;8.70;5.22;;;29.30;99.90;;;;;;5053971;28;20041;-79
2022/05/27 11:54:23;;;;;;;11.25;6.28;;;29.30;99.90;;;;;;5053368;28;20060;-77
2022/05/27 11:57:06;;;;;;;10.63;5.53;;;29.40;99.90;;;;;;5054744;28;20045;-78
2022/05/27 11:59:37;;;;;;;10.80;5.43;;;29.50;99.90;;;;;;5053767;28;20091;-77
2022/05/27 12:02:14;;;;;;;11.52;4.85;;;29.40;99.90;;;;;;5054399;28;20048;-78
2022/05/27 12:04:45;;;;;;;12.43;5.57;;;29.30;99.90;;;;;;5053881;28;20080;-78
2022/05/27 12:07:25;;;;;;;11.75;5.47;;;29.40;99.90;;;;;;5053482;28;20087;-79
2022/05/27 12:09:57;;;;;;;18.70;7.00;;;29.50;99.90;;;;;;5053951;28;20126;-78
2022/05/27 12:12:28;;;;;;;10.93;5.85;;;29.70;99.90;;;;;;5053710;28;20049;-76
2022/05/27 12:15:00;;;;;;;16.75;5.93;;;29.90;99.90;;;;;;5056307;28;20094;-79
2022/05/27 12:17:37;;;;;;;14.48;6.32;;;30.00;99.90;;;;;;5057083;28;20572;-79
2022/05/27 12:20:05;;;;;;;11.15;5.85;;;30.10;99.90;;;;;;5054372;28;20071;-78
2022/05/27 12:22:35;;;;;;;13.60;6.63;;;30.30;99.90;;;;;;5056871;28;20110;-80
2022/05/27 12:25:07;;;;;;;16.40;6.82;;;30.50;99.90;;;;;;5052715;28;20041;-79
2022/05/27 12:27:35;;;;;;;18.05;6.70;;;30.60;99.90;;;;;;5058484;28;20045;-81
2022/05/27 12:30:06;;;;;;;16.73;7.85;;;30.60;99.90;;;;;;5059061;28;20128;-81
2022/05/27 12:32:35;;;;;;;16.42;6.45;;;30.50;99.90;;;;;;5056892;28;20111;-82
2022/05/27 12:35:26;;;;;;;17.52;6.22;;;30.50;99.90;;;;;;5052973;28;20083;-78
2022/05/27 12:38:01;;;;;;;16.90;7.22;;;30.60;99.90;;;;;;5046471;28;20404;-77
2022/05/27 12:40:40;;;;;;;12.00;6.35;;;30.80;99.90;;;;;;5052882;28;20041;-79
2022/05/27 12:43:12;;;;;;;14.95;6.78;;;30.90;99.90;;;;;;5052184;28;20132;-77
2022/05/27 12:45:48;;;;;;;10.30;6.90;;;30.90;99.90;;;;;;5052561;28;20037;-77
2022/05/27 12:48:30;;;;;;;13.23;6.13;;;30.90;99.90;;;;;;5051816;28;20041;-77
2022/05/27 12:51:00;;;;;;;15.63;6.57;;;30.90;99.90;;;;;;5053880;28;20057;-78
2022/05/27 12:53:50;;;;;;;12.63;6.68;;;30.90;99.90;;;;;;5055047;28;20037;-77
2022/05/27 13:02:51;;;;;;;21.17;8.25;;;31.30;99.90;;;;;;5047225;28;20064;-77
2022/05/27 13:05:21;;;;;;;17.08;9.07;;;31.40;99.90;;;;;;5048082;28;20131;-77
2022/05/27 13:07:53;;;;;;;15.50;10.52;;;31.50;99.90;;;;;;5049217;28;20037;-77
2022/05/27 13:10:54;;;;;;;16.92;8.70;;;31.60;99.90;;;;;;5053004;28;20094;-77
2022/05/27 13:13:28;;;;;;;15.57;8.80;;;31.70;99.90;;;;;;4990660;28;20074;-76
2022/05/27 13:16:09;;;;;;;21.42;9.05;;;31.60;99.90;;;;;;5045569;28;20060;-76
2022/05/27 13:18:50;;;;;;;17.58;8.35;;;31.50;99.90;;;;;;5056488;28;20041;-76
2022/05/27 13:21:32;;;;;;;14.13;7.85;;;31.60;99.90;;;;;;5055858;28;20503;-76
2022/05/27 13:24:01;;;;;;;16.42;7.10;;;31.60;99.90;;;;;;5055930;28;20106;-77
2022/05/27 13:26:51;;;;;;;19.63;9.45;;;31.40;99.90;;;;;;5056700;28;20056;-82
2022/05/27 13:29:28;;;;;;;16.90;8.48;;;31.20;99.90;;;;;;5058474;28;20045;-81
2022/05/27 13:32:00;;;;;;;18.75;9.93;;;31.20;99.90;;;;;;5064206;28;20139;-81
2022/05/27 13:34:51;;;;;;;19.15;9.48;;;31.20;99.90;;;;;;5060410;28;20084;-76
2022/05/27 13:37:25;;;;;;;18.70;9.75;;;31.20;99.90;;;;;;5055722;28;20187;-77
2022/05/27 13:39:56;;;;;;;24.20;8.43;;;31.30;99.90;;;;;;5056294;28;20573;-77